Time;durP1;ratioP1;P1;durP2;ratioP2;P2;SDS_P1;SDS_P2;PMS_P1;PMS_P2;Temp;Humidity;BMP_temperature;BMP_pressure;BME280_temperature;BME280_humidity;BME280_pressure;Samples;Min_cycle;Max_cycle;Signal;HPM_P1;HPM_P2
2022/12/17 13:11:36;;;;;;;1.58;1.33;;;;;;;20.67;34.93;100811.03;20836743;28;20039;-65
2022/12/17 13:21:38;;;;;;;1.83;1.40;;;;;;;20.65;34.89;100816.00;20837312;28;20049;-66
2022/12/17 13:32:05;;;;;;;1.83;1.25;;;;;;;20.64;35.07;100822.69;20837370;28;20393;-66
2022/12/17 13:42:24;;;;;;;1.38;1.10;;;;;;;20.67;34.72;100838.81;20841228;28;20060;-65
2022/12/17 13:52:28;;;;;;;1.40;1.25;;;;;;;20.71;34.61;100842.72;20801367;28;20472;-66
2022/12/17 14:02:37;;;;;;;1.58;1.42;;;;;;;20.71;34.58;100853.84;20836665;28;20451;-66
2022/12/17 14:12:42;;;;;;;1.60;1.23;;;;;;;20.67;34.67;100844.38;20833809;28;20053;-66
2022/12/17 14:22:48;;;;;;;1.65;1.17;;;;;;;20.71;35.10;100848.28;20829467;28;20072;-66
2022/12/17 14:32:52;;;;;;;3.70;1.48;;;;;;;20.59;35.96;100847.72;20810017;28;20409;-65
2022/12/17 14:42:58;;;;;;;3.25;1.58;;;;;;;20.75;36.15;100870.75;20821165;28;20057;-64
2022/12/17 14:53:02;;;;;;;2.13;1.50;;;;;;;20.78;36.04;100871.03;20828013;28;20472;-64
2022/12/17 15:03:04;;;;;;;4.85;1.65;;;;;;;20.76;36.19;100853.00;20822965;28;20096;-65
2022/12/17 15:13:06;;;;;;;3.90;2.00;;;;;;;20.83;36.34;100852.69;20831660;28;20041;-65
2022/12/17 15:23:15;;;;;;;4.15;1.63;;;;;;;20.83;36.35;100845.16;20822476;28;20455;-64
2022/12/17 15:33:17;;;;;;;4.70;1.80;;;;;;;20.81;36.15;100842.69;20805178;28;20079;-65
2022/12/17 15:43:18;;;;;;;2.97;1.48;;;;;;;20.89;36.17;100848.75;20774605;28;20045;-65
2022/12/17 15:53:20;;;;;;;5.68;1.80;;;;;;;20.87;36.06;100835.13;20792675;28;20057;-68
2022/12/17 16:03:21;;;;;;;7.40;1.60;;;;;;;20.92;36.07;100826.78;20808759;28;20073;-65
2022/12/17 16:13:23;;;;;;;6.50;2.33;;;;;;;20.95;36.18;100819.81;20816900;28;20111;-65
2022/12/17 16:23:24;;;;;;;23.10;6.68;;;;;;;20.94;36.57;100809.81;20825264;28;20045;-66
2022/12/17 16:33:35;;;;;;;47.45;13.45;;;;;;;20.89;36.99;100805.13;20820718;28;20053;-66
2022/12/17 16:43:39;;;;;;;54.05;14.18;;;;;;;20.95;37.10;100805.91;20807724;28;20096;-65
2022/12/17 16:53:41;;;;;;;49.60;15.07;;;;;;;20.96;36.76;100796.44;20808199;28;20045;-64
2022/12/17 17:03:42;;;;;;;58.13;14.63;;;;;;;20.90;36.69;100792.03;20840132;28;20117;-65
2022/12/17 17:13:44;;;;;;;49.72;15.23;;;;;;;20.92;37.29;100787.00;20840167;28;20362;-64
2022/12/17 17:23:46;;;;;;;49.22;15.30;;;;;;;20.80;37.15;100735.34;20839340;28;20045;-64
2022/12/17 17:33:49;;;;;;;44.20;13.50;;;;;;;20.93;37.48;100735.81;20836370;28;20103;-65
2022/12/17 17:44:00;;;;;;;45.50;13.65;;;;;;;20.89;37.80;100732.78;20837730;28;20103;-65
2022/12/17 17:54:02;;;;;;;36.38;11.60;;;;;;;20.93;38.04;100733.03;20836281;28;20130;-65
2022/12/17 18:04:05;;;;;;;41.42;11.27;;;;;;;20.96;38.38;100732.47;20835211;28;20037;-65
2022/12/17 18:14:09;;;;;;;38.75;11.68;;;;;;;20.95;38.55;100728.88;20831276;28;20492;-65
2022/12/17 18:24:20;;;;;;;33.22;11.07;;;;;;;20.92;38.27;100709.94;20797326;28;20096;-65
2022/12/17 18:34:25;;;;;;;24.92;9.77;;;;;;;20.96;38.69;100718.56;20788863;28;20045;-63
2022/12/17 18:44:31;;;;;;;25.40;8.77;;;;;;;20.96;38.33;100713.81;20772615;28;20049;-63
2022/12/17 18:54:33;;;;;;;27.50;8.60;;;;;;;20.97;37.47;100717.44;20833757;28;20049;-65
2022/12/17 19:04:36;;;;;;;28.77;8.32;;;;;;;20.99;37.31;100715.22;20793654;28;20037;-65
2022/12/17 19:14:42;;;;;;;16.25;7.57;;;;;;;20.97;37.13;100701.56;20832484;28;20053;-65
2022/12/17 19:24:44;;;;;;;18.92;7.00;;;;;;;21.02;36.97;100711.84;20808137;28;20037;-65
2022/12/17 19:34:45;;;;;;;22.98;7.35;;;;;;;20.89;36.92;100690.22;20794835;28;20045;-65
2022/12/17 19:44:47;;;;;;;17.33;6.60;;;;;;;20.62;36.63;100649.78;20807203;28;20037;-65
2022/12/17 19:54:49;;;;;;;17.30;6.57;;;;;;;20.92;36.81;100703.56;20800552;28;20050;-65
2022/12/17 20:04:50;;;;;;;16.13;6.00;;;;;;;20.99;36.83;100734.69;20814481;28;20053;-64
2022/12/17 20:14:52;;;;;;;13.10;5.25;;;;;;;21.04;36.41;100756.91;20826099;28;20045;-64
2022/12/17 20:24:53;;;;;;;12.98;5.20;;;;;;;21.05;36.72;100773.31;20825342;28;20041;-65
2022/12/17 20:34:54;;;;;;;9.05;4.43;;;;;;;21.05;36.34;100781.66;20798437;28;20100;-65
2022/12/17 20:44:56;;;;;;;20.10;5.00;;;;;;;21.00;36.67;100784.47;20810633;28;20050;-65
2022/12/17 20:54:57;;;;;;;37.17;5.35;;;;;;;21.14;36.76;100797.75;20793152;28;20041;-63
2022/12/17 21:04:59;;;;;;;25.77;5.05;;;;;;;21.18;36.11;100819.16;20810871;28;20038;-63
2022/12/17 21:15:03;;;;;;;17.23;4.35;;;;;;;21.26;36.72;100826.09;20816482;28;20457;-65
2022/12/17 21:25:05;;;;;;;10.77;4.47;;;;;;;21.22;36.54;100842.53;20796564;28;20046;-64
2022/12/17 21:35:06;;;;;;;11.38;3.30;;;;;;;21.27;36.38;100863.94;20856179;28;20111;-63
2022/12/17 21:45:08;;;;;;;10.82;3.65;;;;;;;21.37;36.27;100877.00;20830683;28;20101;-62
2022/12/17 21:55:10;;;;;;;15.25;4.18;;;;;;;21.40;36.46;100866.13;20840005;28;20041;-61
2022/12/17 22:05:11;;;;;;;10.57;3.33;;;;;;;21.44;36.25;100871.94;20818166;28;20037;-63
2022/12/17 22:15:15;;;;;;;9.35;3.60;;;;;;;21.51;36.49;100878.03;20819430;28;20049;-66
2022/12/17 22:25:17;;;;;;;7.63;3.05;;;;;;;21.47;36.22;100861.06;20822721;28;20081;-65
2022/12/17 22:35:19;;;;;;;6.68;2.78;;;;;;;21.61;36.37;100893.84;20855573;28;20095;-63
2022/12/17 22:45:20;;;;;;;7.25;3.03;;;;;;;21.60;36.42;100892.19;20816271;28;20967;-64
2022/12/17 22:55:22;;;;;;;8.27;2.65;;;;;;;21.66;36.39;100911.34;20825922;28;20064;-63
2022/12/17 23:05:25;;;;;;;9.73;2.70;;;;;;;21.68;36.35;100927.81;20806443;28;20369;-66
2022/12/17 23:15:31;;;;;;;7.15;2.63;;;;;;;21.72;35.87;100935.31;20824214;28;20049;-63
2022/12/17 23:25:38;;;;;;;6.88;2.58;;;;;;;21.70;36.24;100948.66;20805823;28;20045;-63
2022/12/17 23:35:42;;;;;;;13.00;3.45;;;;;;;21.71;36.20;100960.63;20819336;28;20488;-63
2022/12/17 23:45:46;;;;;;;8.25;2.33;;;;;;;21.68;35.50;100950.09;20829034;28;20033;-64
2022/12/17 23:55:48;;;;;;;11.00;2.60;;;;;;;21.65;35.58;100961.78;20828718;28;20394;-63
